createdAt,value
2022-09-23T00:00:22.397Z,39.96
2022-09-23T00:01:22.463Z,38.67
2022-09-23T00:02:22.760Z,37.22
2022-09-23T00:03:22.375Z,37.22
2022-09-23T00:04:22.377Z,37.71
2022-09-23T00:05:22.376Z,38.83
2022-09-23T00:06:22.377Z,40.77
2022-09-23T00:07:22.354Z,40.28
2022-09-23T00:08:22.347Z,40.44
2022-09-23T00:09:22.784Z,38.03
2022-09-23T00:10:22.794Z,37.22
2022-09-23T00:11:22.384Z,38.99
2022-09-23T00:12:22.324Z,37.38
2022-09-23T00:13:22.316Z,38.03
2022-09-23T00:14:22.403Z,38.03
2022-09-23T00:15:22.304Z,41.41
2022-09-23T00:16:22.615Z,37.54
2022-09-23T00:17:22.284Z,40.44
2022-09-23T00:18:22.343Z,40.28
2022-09-23T00:19:22.354Z,39.80
2022-09-23T00:20:22.264Z,40.93
2022-09-23T00:21:22.295Z,39.96
2022-09-23T00:22:22.252Z,38.19
2022-09-23T00:23:22.251Z,36.74
2022-09-23T00:24:22.509Z,38.19
2022-09-23T00:25:22.232Z,40.44
2022-09-23T00:26:22.247Z,40.77
2022-09-23T00:27:22.732Z,40.28
2022-09-23T00:28:22.212Z,38.19
2022-09-23T00:29:22.262Z,37.87
2022-09-23T00:30:22.242Z,37.22
2022-09-23T00:31:22.890Z,40.93
2022-09-23T00:32:22.959Z,39.16
2022-09-23T00:33:22.971Z,39.96
2022-09-23T00:34:22.180Z,38.19
2022-09-23T00:35:23.079Z,39.32
2022-09-23T00:36:23.029Z,37.22
2022-09-23T00:37:23.129Z,39.96
2022-09-23T00:38:22.319Z,39.96
2022-09-23T00:39:22.998Z,37.06
2022-09-23T00:40:23.246Z,37.71
2022-09-23T00:41:22.147Z,41.73
2022-09-23T00:42:22.435Z,41.57
2022-09-23T00:43:22.118Z,46.08
2022-09-23T00:44:22.326Z,36.42
2022-09-23T00:45:22.218Z,38.03
2022-09-23T00:46:23.126Z,39.64
2022-09-23T00:47:22.997Z,38.51
2022-09-23T00:48:22.897Z,36.74
2022-09-23T00:49:22.077Z,39.64
2022-09-23T00:50:22.149Z,38.51
2022-09-23T00:51:22.068Z,37.71
2022-09-23T00:52:22.267Z,38.99
2022-09-23T00:53:22.049Z,39.64
2022-09-23T00:54:22.280Z,39.48
2022-09-23T00:55:22.283Z,38.83
2022-09-23T00:56:22.287Z,39.80
2022-09-23T00:57:22.415Z,40.77
2022-09-23T00:58:22.426Z,38.19
2022-09-23T00:59:22.437Z,41.41
2022-09-23T01:00:22.548Z,41.57
2022-09-23T01:01:22.662Z,39.32
2022-09-23T01:02:22.188Z,38.35
2022-09-23T01:03:22.665Z,40.12
2022-09-23T01:04:22.666Z,39.96
2022-09-23T01:05:22.068Z,40.93
2022-09-23T01:06:22.764Z,40.28
2022-09-23T01:07:22.874Z,39.16
2022-09-23T01:08:22.774Z,36.74
2022-09-23T01:09:22.915Z,38.99
2022-09-23T01:10:22.844Z,37.54
2022-09-23T01:11:22.744Z,39.64
2022-09-23T01:12:22.913Z,39.32
2022-09-23T01:13:22.804Z,40.93
2022-09-23T01:14:21.992Z,40.77
2022-09-23T01:15:22.744Z,39.16
2022-09-23T01:16:22.072Z,40.12
2022-09-23T01:17:21.942Z,38.51
2022-09-23T01:18:21.951Z,39.80
2022-09-23T01:19:22.039Z,39.96
2022-09-23T01:20:22.041Z,39.80
2022-09-23T01:21:22.174Z,38.67
2022-09-23T01:22:22.181Z,37.71
2022-09-23T01:23:22.191Z,39.96
2022-09-23T01:24:22.192Z,39.48
2022-09-23T01:25:22.280Z,37.38
2022-09-23T01:26:21.821Z,38.35
2022-09-23T01:27:21.832Z,37.38
2022-09-23T01:28:21.820Z,38.83
2022-09-23T01:29:21.812Z,41.09
2022-09-23T01:30:21.890Z,41.25
2022-09-23T01:31:22.065Z,40.93
2022-09-23T01:32:22.047Z,41.73
2022-09-23T01:33:22.062Z,39.64
2022-09-23T01:34:22.049Z,38.83
2022-09-23T01:35:21.929Z,39.16
2022-09-23T01:36:22.076Z,41.09
2022-09-23T01:37:22.279Z,41.25
2022-09-23T01:38:22.289Z,37.71
2022-09-23T01:39:22.297Z,38.67
2022-09-23T01:40:21.785Z,37.22
2022-09-23T01:41:21.908Z,41.41
2022-09-23T01:42:21.765Z,40.12
2022-09-23T01:43:21.986Z,38.03
2022-09-23T01:44:22.527Z,37.71
2022-09-23T01:45:22.574Z,38.19
2022-09-23T01:46:22.610Z,42.06
2022-09-23T01:47:22.616Z,38.83
2022-09-23T01:48:22.601Z,39.96
2022-09-23T01:49:21.766Z,39.80
2022-09-23T01:50:22.206Z,39.96
2022-09-23T01:51:21.835Z,42.54
2022-09-23T01:52:22.586Z,39.64
2022-09-23T01:53:21.646Z,38.67
2022-09-23T01:54:21.645Z,40.28
2022-09-23T01:55:21.654Z,41.89
2022-09-23T01:56:21.634Z,37.38
2022-09-23T01:57:21.647Z,39.64
2022-09-23T01:58:21.714Z,41.57
2022-09-23T01:59:21.622Z,42.70
2022-09-23T02:00:21.687Z,39.32
2022-09-23T02:01:21.754Z,37.71
2022-09-23T02:02:21.620Z,40.77
2022-09-23T02:03:21.644Z,38.83
2022-09-23T02:04:21.642Z,38.99
2022-09-23T02:05:21.674Z,41.73
2022-09-23T02:06:21.553Z,38.51
2022-09-23T02:07:21.563Z,40.93
2022-09-23T02:08:21.542Z,39.16
2022-09-23T02:09:21.531Z,46.41
2022-09-23T02:10:21.539Z,41.25
2022-09-23T02:11:21.523Z,42.06
2022-09-23T02:12:21.530Z,39.80
2022-09-23T02:13:21.514Z,39.32
2022-09-23T02:14:21.501Z,39.80
2022-09-23T02:15:21.501Z,47.05
2022-09-23T02:16:21.574Z,39.48
2022-09-23T02:17:21.510Z,39.96
2022-09-23T02:18:21.470Z,39.16
2022-09-23T02:19:21.476Z,38.51
2022-09-23T02:20:21.498Z,37.87
2022-09-23T02:21:21.459Z,40.77
2022-09-23T02:22:21.478Z,38.99
2022-09-23T02:23:21.442Z,41.57
2022-09-23T02:24:21.429Z,38.19
2022-09-23T02:25:21.425Z,40.44
2022-09-23T02:26:21.418Z,41.09
2022-09-23T02:27:21.439Z,40.28
2022-09-23T02:28:21.399Z,39.16
2022-09-23T02:29:21.399Z,41.09
2022-09-23T02:30:21.389Z,40.12
2022-09-23T02:31:21.457Z,40.12
2022-09-23T02:32:21.377Z,39.32
2022-09-23T02:33:21.438Z,39.32
2022-09-23T02:34:21.388Z,40.28
2022-09-23T02:35:21.389Z,49.79
2022-09-23T02:36:21.500Z,39.64
2022-09-23T02:37:21.344Z,39.64
2022-09-23T02:38:21.349Z,40.12
2022-09-23T02:39:21.328Z,40.44
2022-09-23T02:40:21.376Z,39.96
2022-09-23T02:41:21.325Z,43.02
2022-09-23T02:42:21.315Z,39.96
2022-09-23T02:43:21.336Z,40.77
2022-09-23T02:44:21.306Z,41.89
2022-09-23T02:45:21.295Z,40.12
2022-09-23T02:46:21.345Z,41.41
2022-09-23T02:47:21.295Z,41.73
2022-09-23T02:48:21.268Z,40.77
2022-09-23T02:49:21.269Z,41.73
2022-09-23T02:50:21.284Z,39.80
2022-09-23T02:51:21.265Z,40.44
2022-09-23T02:52:21.288Z,43.51
2022-09-23T02:53:21.245Z,41.57
2022-09-23T02:54:21.233Z,43.34
2022-09-23T02:55:21.224Z,40.77
2022-09-23T02:56:21.213Z,40.44
2022-09-23T02:57:21.231Z,40.28
2022-09-23T02:58:21.394Z,41.57
2022-09-23T02:59:21.213Z,40.12
2022-09-23T03:00:21.815Z,41.41
2022-09-23T03:01:21.259Z,39.96
2022-09-23T03:02:21.230Z,40.28
2022-09-23T03:03:21.171Z,41.73
2022-09-23T03:04:21.162Z,41.25
2022-09-23T03:05:22.041Z,39.48
2022-09-23T03:06:22.282Z,41.09
2022-09-23T03:07:22.102Z,41.41
2022-09-23T03:08:22.012Z,40.93
2022-09-23T03:09:21.132Z,41.89
2022-09-23T03:10:21.120Z,40.28
2022-09-23T03:11:21.126Z,40.44
2022-09-23T03:12:21.131Z,40.61
2022-09-23T03:13:21.160Z,39.80
2022-09-23T03:14:21.102Z,42.70
2022-09-23T03:15:21.091Z,43.67
2022-09-23T03:16:21.120Z,41.73
2022-09-23T03:17:21.078Z,43.02
2022-09-23T03:18:21.079Z,42.22
2022-09-23T03:19:21.389Z,41.57
2022-09-23T03:20:21.548Z,41.09
2022-09-23T03:21:21.140Z,41.41
2022-09-23T03:22:21.160Z,42.54
2022-09-23T03:23:21.148Z,45.44
2022-09-23T03:24:21.157Z,43.18
2022-09-23T03:25:21.049Z,43.02
2022-09-23T03:26:21.018Z,41.89
2022-09-23T03:27:21.008Z,43.99
2022-09-23T03:28:21.019Z,43.51
2022-09-23T03:29:20.998Z,40.61
2022-09-23T03:30:20.989Z,43.02
2022-09-23T03:31:21.028Z,45.60
2022-09-23T03:32:20.975Z,42.06
2022-09-23T03:33:20.989Z,44.15
2022-09-23T03:34:20.982Z,43.51
2022-09-23T03:35:20.962Z,44.63
2022-09-23T03:36:20.968Z,48.18
2022-09-23T03:37:20.939Z,44.79
2022-09-23T03:38:21.096Z,44.47
2022-09-23T03:39:20.935Z,42.06
2022-09-23T03:40:20.962Z,42.22
2022-09-23T03:41:20.917Z,42.22
2022-09-23T03:42:20.919Z,45.12
2022-09-23T03:43:20.917Z,43.51
2022-09-23T03:44:20.895Z,42.86
2022-09-23T03:45:20.957Z,43.18
2022-09-23T03:46:20.884Z,43.51
2022-09-23T03:47:20.883Z,42.38
2022-09-23T03:48:21.075Z,43.34
2022-09-23T03:49:20.873Z,43.51
2022-09-23T03:50:20.865Z,43.99
2022-09-23T03:51:20.855Z,43.02
2022-09-23T03:52:20.855Z,41.89
2022-09-23T03:53:20.864Z,40.61
2022-09-23T03:54:20.998Z,46.57
2022-09-23T03:55:21.185Z,43.34
2022-09-23T03:56:20.822Z,42.22
2022-09-23T03:57:20.811Z,44.63
2022-09-23T03:58:20.821Z,45.76
2022-09-23T03:59:20.792Z,47.05
2022-09-23T04:00:20.802Z,45.92
2022-09-23T04:01:20.837Z,41.09
2022-09-23T04:02:20.868Z,41.89
2022-09-23T04:03:20.792Z,43.18
2022-09-23T04:04:20.769Z,43.02
2022-09-23T04:05:20.750Z,42.86
2022-09-23T04:06:20.751Z,42.54
2022-09-23T04:07:20.740Z,46.73
2022-09-23T04:08:20.751Z,43.51
2022-09-23T04:09:20.741Z,44.47
2022-09-23T04:10:20.752Z,44.96
2022-09-23T04:11:20.721Z,45.44
2022-09-23T04:12:20.723Z,43.83
2022-09-23T04:13:20.748Z,46.25
2022-09-23T04:14:20.710Z,43.67
2022-09-23T04:15:20.709Z,46.41
2022-09-23T04:16:20.733Z,43.18
2022-09-23T04:17:20.676Z,43.67
2022-09-23T04:18:20.669Z,43.83
2022-09-23T04:19:20.679Z,44.31
2022-09-23T04:20:20.648Z,43.83
2022-09-23T04:21:20.649Z,45.92
2022-09-23T04:22:20.636Z,44.31
2022-09-23T04:23:20.727Z,47.37
2022-09-23T04:24:20.638Z,45.28
2022-09-23T04:25:20.626Z,44.63
2022-09-23T04:26:20.606Z,43.18
2022-09-23T04:27:20.621Z,47.70
2022-09-23T04:28:20.597Z,53.17
2022-09-23T04:29:20.719Z,47.21
2022-09-23T04:30:20.597Z,47.37
2022-09-23T04:31:20.677Z,44.15
2022-09-23T04:32:20.568Z,46.73
2022-09-23T04:33:20.574Z,44.96
2022-09-23T04:34:20.625Z,47.05
2022-09-23T04:35:20.565Z,47.21
2022-09-23T04:36:20.545Z,45.28
2022-09-23T04:37:20.545Z,43.34
2022-09-23T04:38:20.534Z,45.44
2022-09-23T04:39:20.574Z,46.89
2022-09-23T04:40:20.578Z,44.96
2022-09-23T04:41:20.515Z,45.60
2022-09-23T04:42:20.505Z,50.60
2022-09-23T04:43:20.503Z,45.12
2022-09-23T04:44:20.504Z,44.31
2022-09-23T04:45:20.492Z,44.31
2022-09-23T04:46:20.533Z,42.70
2022-09-23T04:47:20.481Z,47.37
2022-09-23T04:48:20.722Z,43.99
2022-09-23T04:49:21.140Z,44.31
2022-09-23T04:50:20.453Z,47.86
2022-09-23T04:51:20.457Z,50.11
2022-09-23T04:52:21.379Z,45.44
2022-09-23T04:53:20.623Z,45.44
2022-09-23T04:54:20.754Z,47.53
2022-09-23T04:55:21.401Z,45.92
2022-09-23T04:56:21.381Z,45.44
2022-09-23T04:57:21.273Z,44.96
2022-09-23T04:58:20.781Z,44.47
2022-09-23T04:59:21.201Z,46.57
2022-09-23T05:00:20.416Z,49.95
2022-09-23T05:01:20.554Z,45.92
2022-09-23T05:02:21.374Z,49.31
2022-09-23T05:03:20.621Z,47.53
2022-09-23T05:04:21.369Z,46.89
2022-09-23T05:05:21.244Z,48.98
2022-09-23T05:06:20.850Z,45.44
2022-09-23T05:07:20.429Z,46.41
2022-09-23T05:08:20.469Z,49.63
2022-09-23T05:09:20.456Z,44.31
2022-09-23T05:10:20.480Z,51.72
2022-09-23T05:11:20.476Z,47.70
2022-09-23T05:12:20.482Z,46.25
2022-09-23T05:13:20.309Z,49.63
2022-09-23T05:14:20.332Z,45.76
2022-09-23T05:15:20.298Z,45.92
2022-09-23T05:16:20.621Z,46.57
2022-09-23T05:17:20.517Z,49.63
2022-09-23T05:18:20.995Z,49.47
2022-09-23T05:19:20.494Z,47.70
2022-09-23T05:20:20.530Z,48.02
2022-09-23T05:21:20.317Z,45.92
2022-09-23T05:22:20.745Z,47.05
2022-09-23T05:23:20.774Z,47.86
2022-09-23T05:24:20.789Z,49.63
2022-09-23T05:25:20.766Z,49.79
2022-09-23T05:26:20.973Z,54.14
2022-09-23T05:27:20.985Z,49.15
2022-09-23T05:28:20.576Z,49.79
2022-09-23T05:29:21.005Z,66.39
2022-09-23T05:30:20.786Z,49.63
2022-09-23T05:31:21.163Z,48.98
2022-09-23T05:32:20.398Z,49.63
2022-09-23T05:33:20.606Z,47.70
2022-09-23T05:34:20.413Z,46.89
2022-09-23T05:35:21.234Z,49.47
2022-09-23T05:36:21.037Z,48.02
2022-09-23T05:37:20.224Z,51.40
2022-09-23T05:38:21.044Z,50.76
2022-09-23T05:39:20.163Z,48.66
2022-09-23T05:40:20.493Z,49.47
2022-09-23T05:41:20.855Z,48.34
2022-09-23T05:42:20.663Z,49.15
2022-09-23T05:43:20.663Z,48.34
2022-09-23T05:44:21.085Z,47.70
2022-09-23T05:45:20.271Z,50.11
2022-09-23T05:46:20.127Z,46.41
2022-09-23T05:47:20.492Z,49.79
2022-09-23T05:48:20.700Z,48.18
2022-09-23T05:49:26.597Z,47.05
2022-09-23T05:50:20.101Z,51.40
2022-09-23T05:51:20.063Z,50.60
2022-09-23T05:52:20.122Z,50.11
2022-09-23T05:53:20.121Z,47.53
2022-09-23T05:54:20.129Z,53.50
2022-09-23T05:55:20.341Z,48.18
2022-09-23T05:56:20.352Z,48.02
2022-09-23T05:57:20.159Z,47.05
2022-09-23T05:58:20.368Z,47.53
2022-09-23T05:59:20.389Z,47.53
2022-09-23T06:00:20.168Z,47.70
2022-09-23T06:01:20.048Z,47.53
2022-09-23T06:02:20.043Z,63.97
2022-09-23T06:03:20.679Z,46.41
2022-09-23T06:04:19.999Z,48.98
2022-09-23T06:05:20.011Z,49.95
2022-09-23T06:06:20.037Z,44.96
2022-09-23T06:07:20.030Z,48.66
2022-09-23T06:08:20.030Z,47.53
2022-09-23T06:09:20.059Z,47.70
2022-09-23T06:10:20.240Z,47.53
2022-09-23T06:11:20.258Z,48.02
2022-09-23T06:12:20.266Z,49.47
2022-09-23T06:13:19.899Z,46.41
2022-09-23T06:14:20.085Z,46.08
2022-09-23T06:15:20.056Z,47.70
2022-09-23T06:16:20.558Z,48.66
2022-09-23T06:17:20.529Z,47.37
2022-09-23T06:18:19.899Z,46.57
2022-09-23T06:19:19.897Z,46.73
2022-09-23T06:20:19.909Z,45.92
2022-09-23T06:21:19.943Z,47.21
2022-09-23T06:22:19.835Z,46.57
2022-09-23T06:23:23.466Z,45.92
2022-09-23T06:24:22.933Z,46.89
2022-09-23T06:25:19.836Z,45.92
2022-09-23T06:26:19.807Z,48.34
2022-09-23T06:27:19.830Z,47.53
2022-09-23T06:28:19.834Z,48.66
2022-09-23T06:29:19.798Z,47.21
2022-09-23T06:30:19.964Z,48.02
2022-09-23T06:31:20.104Z,47.05
2022-09-23T06:32:19.774Z,47.21
2022-09-23T06:33:31.901Z,47.05
2022-09-23T06:34:20.167Z,45.60
2022-09-23T06:35:26.911Z,45.44
2022-09-23T06:36:35.990Z,47.37
2022-09-23T06:37:20.779Z,44.63
2022-09-23T06:38:20.012Z,46.89
2022-09-23T06:39:19.972Z,45.76
2022-09-23T06:40:20.056Z,50.11
2022-09-23T06:41:19.712Z,48.02
2022-09-23T06:42:20.042Z,44.15
2022-09-23T06:43:20.047Z,44.47
2022-09-23T06:44:20.202Z,46.57
2022-09-23T06:45:20.079Z,45.92
2022-09-23T06:46:20.130Z,47.05
2022-09-23T06:47:20.093Z,46.41
2022-09-23T06:48:19.861Z,45.44
2022-09-23T06:49:20.102Z,44.96
2022-09-23T06:50:20.194Z,45.76
2022-09-23T06:51:19.655Z,47.53
2022-09-23T06:52:20.093Z,47.21
2022-09-23T06:53:20.228Z,46.08
2022-09-23T06:54:20.484Z,46.73
2022-09-23T06:55:19.630Z,49.15
2022-09-23T06:56:20.261Z,44.47
2022-09-23T06:57:20.282Z,44.31
2022-09-23T06:58:20.291Z,45.92
2022-09-23T06:59:19.589Z,46.08
2022-09-23T07:00:19.590Z,46.08
2022-09-23T07:01:19.682Z,45.44
2022-09-23T07:02:19.826Z,45.60
2022-09-23T07:03:19.574Z,47.21
2022-09-23T07:04:19.558Z,47.86
2022-09-23T07:05:19.602Z,47.53
2022-09-23T07:06:19.569Z,55.75
2022-09-23T07:07:19.578Z,48.02
2022-09-23T07:08:19.619Z,48.50
2022-09-23T07:09:19.668Z,44.47
2022-09-23T07:10:19.798Z,48.18
2022-09-23T07:11:19.605Z,46.08
2022-09-23T07:12:19.826Z,48.98
2022-09-23T07:13:20.027Z,46.08
2022-09-23T07:14:19.827Z,47.86
2022-09-23T07:15:19.496Z,46.41
2022-09-23T07:16:20.108Z,47.21
2022-09-23T07:17:19.639Z,46.89
2022-09-23T07:18:19.467Z,45.60
2022-09-23T07:19:19.856Z,47.70
2022-09-23T07:20:20.277Z,47.21
2022-09-23T07:21:19.468Z,45.76
2022-09-23T07:22:19.925Z,45.60
2022-09-23T07:23:20.148Z,49.15
2022-09-23T07:24:20.493Z,48.18
2022-09-23T07:25:20.387Z,44.79
2022-09-23T07:26:19.520Z,47.05
2022-09-23T07:27:19.908Z,47.21
2022-09-23T07:28:20.345Z,49.15
2022-09-23T07:29:20.246Z,45.60
2022-09-23T07:30:25.098Z,44.96
2022-09-23T07:31:34.333Z,46.25
2022-09-23T07:32:19.426Z,44.31
2022-09-23T07:33:30.912Z,48.02
2022-09-23T07:34:20.154Z,47.37
2022-09-23T07:35:19.555Z,48.98
2022-09-23T07:36:20.165Z,59.30
2022-09-23T07:37:19.782Z,50.43
2022-09-23T07:38:19.982Z,47.05
2022-09-23T07:39:19.512Z,47.53
2022-09-23T07:40:19.622Z,45.12
2022-09-23T07:41:20.113Z,44.96
2022-09-23T07:42:19.305Z,46.41
2022-09-23T07:43:19.303Z,45.44
2022-09-23T07:44:19.411Z,48.66
2022-09-23T07:45:19.283Z,46.89
2022-09-23T07:46:19.346Z,47.70
2022-09-23T07:47:19.271Z,47.53
2022-09-23T07:48:19.265Z,47.53
2022-09-23T07:49:19.255Z,48.34
2022-09-23T07:50:19.242Z,51.08
2022-09-23T07:51:19.252Z,46.25
2022-09-23T07:52:19.251Z,48.34
2022-09-23T07:53:19.232Z,48.82
2022-09-23T07:54:19.264Z,45.92
2022-09-23T07:55:21.117Z,51.24
2022-09-23T07:56:19.297Z,48.18
2022-09-23T07:57:19.292Z,49.79
2022-09-23T07:58:19.301Z,48.18
2022-09-23T07:59:19.398Z,47.05
2022-09-23T08:00:19.310Z,49.31
2022-09-23T08:01:19.375Z,47.86
2022-09-23T08:02:19.398Z,49.79
2022-09-23T08:03:19.379Z,45.12
2022-09-23T08:04:19.381Z,45.76
2022-09-23T08:05:19.140Z,47.21
2022-09-23T08:06:19.351Z,48.34
2022-09-23T08:07:19.403Z,47.05
2022-09-23T08:08:19.409Z,46.89
2022-09-23T08:09:19.109Z,47.21
2022-09-23T08:10:19.211Z,45.92
2022-09-23T08:11:19.371Z,51.24
2022-09-23T08:12:19.588Z,48.18
2022-09-23T08:13:19.600Z,48.34
2022-09-23T08:14:19.079Z,52.05
2022-09-23T08:15:19.613Z,44.15
2022-09-23T08:16:19.125Z,45.28
2022-09-23T08:17:19.070Z,47.53
2022-09-23T08:18:19.048Z,46.25
2022-09-23T08:19:19.067Z,46.25
2022-09-23T08:20:19.093Z,48.98
2022-09-23T08:21:19.091Z,48.66
2022-09-23T08:22:19.036Z,47.53
2022-09-23T08:23:19.111Z,48.02
2022-09-23T08:24:19.110Z,49.63
2022-09-23T08:25:21.721Z,50.43
2022-09-23T08:26:22.015Z,47.70
2022-09-23T08:27:18.986Z,48.18
2022-09-23T08:28:19.295Z,47.21
2022-09-23T08:29:19.078Z,51.56
2022-09-23T08:30:19.299Z,49.15
2022-09-23T08:31:19.340Z,47.70
2022-09-23T08:32:19.307Z,51.88
2022-09-23T08:33:23.165Z,47.53
2022-09-23T08:34:19.110Z,50.11
2022-09-23T08:35:19.328Z,48.18
2022-09-23T08:36:19.337Z,48.50
2022-09-23T08:37:19.337Z,47.70
2022-09-23T08:38:19.357Z,46.89
2022-09-23T08:39:19.287Z,49.15
2022-09-23T08:40:19.410Z,45.92
2022-09-23T08:41:19.370Z,51.08
2022-09-23T08:42:18.905Z,54.30
2022-09-23T08:43:19.174Z,48.02
2022-09-23T08:44:18.887Z,50.27
2022-09-23T08:45:18.878Z,49.63
2022-09-23T08:46:18.888Z,47.70
2022-09-23T08:47:18.857Z,47.21
2022-09-23T08:48:18.855Z,48.34
2022-09-23T08:49:18.885Z,47.53
2022-09-23T08:50:18.837Z,47.21
2022-09-23T08:51:19.026Z,48.02
2022-09-23T08:52:19.106Z,47.70
2022-09-23T08:53:19.246Z,47.21
2022-09-23T08:54:19.255Z,48.50
2022-09-23T08:55:18.846Z,47.37
2022-09-23T08:56:19.335Z,47.86
2022-09-23T08:57:18.856Z,46.41
2022-09-23T08:58:26.613Z,48.66
2022-09-23T08:59:18.866Z,48.18
2022-09-23T09:00:18.895Z,46.89
2022-09-23T09:01:18.987Z,45.92
2022-09-23T09:02:18.801Z,48.98
2022-09-23T09:03:19.102Z,48.18
2022-09-23T09:04:18.775Z,48.18
2022-09-23T09:05:18.743Z,51.40
2022-09-23T09:06:18.745Z,48.18
2022-09-23T09:07:35.725Z,47.70
2022-09-23T09:08:18.866Z,47.70
2022-09-23T09:09:18.832Z,47.70
2022-09-23T09:10:18.944Z,47.70
2022-09-23T09:11:18.742Z,45.92
2022-09-23T09:12:19.171Z,50.60
2022-09-23T09:13:19.243Z,47.53
2022-09-23T09:14:18.842Z,54.95
2022-09-23T09:15:18.674Z,46.57
2022-09-23T09:16:23.879Z,46.41
2022-09-23T09:17:19.061Z,46.89
2022-09-23T09:18:19.481Z,46.08
2022-09-23T09:19:19.203Z,47.53
2022-09-23T09:20:19.558Z,46.57
2022-09-23T09:21:19.500Z,45.76
2022-09-23T09:22:18.895Z,47.70
2022-09-23T09:23:18.906Z,47.21
2022-09-23T09:24:19.033Z,48.18
2022-09-23T09:25:19.607Z,48.66
2022-09-23T09:26:19.455Z,47.37
2022-09-23T09:27:19.123Z,44.96
2022-09-23T09:28:19.464Z,48.50
2022-09-23T09:29:35.858Z,46.89
2022-09-23T09:30:19.405Z,48.18
2022-09-23T09:31:18.589Z,46.73
2022-09-23T09:32:18.555Z,44.96
2022-09-23T09:33:18.562Z,48.02
2022-09-23T09:34:18.562Z,46.41
2022-09-23T09:35:18.691Z,46.89
2022-09-23T09:36:18.701Z,46.73
2022-09-23T09:37:18.512Z,46.25
2022-09-23T09:38:18.512Z,47.70
2022-09-23T09:39:20.804Z,46.08
2022-09-23T09:40:18.642Z,46.73
2022-09-23T09:41:18.628Z,47.05
2022-09-23T09:42:18.497Z,46.25
2022-09-23T09:43:18.772Z,57.52
2022-09-23T09:44:18.549Z,48.82
2022-09-23T09:45:19.661Z,47.53
2022-09-23T09:46:18.583Z,46.73
2022-09-23T09:47:18.792Z,47.53
2022-09-23T09:48:19.002Z,47.53
2022-09-23T09:49:18.479Z,47.37
2022-09-23T09:50:19.110Z,45.92
2022-09-23T09:51:18.475Z,47.53
2022-09-23T09:52:19.222Z,46.57
2022-09-23T09:53:18.848Z,47.53
2022-09-23T09:54:18.777Z,47.05
2022-09-23T09:55:18.857Z,45.44
2022-09-23T09:56:18.975Z,45.28
2022-09-23T09:57:19.205Z,46.57
2022-09-23T09:58:18.376Z,48.02
2022-09-23T09:59:18.295Z,49.15
2022-09-23T10:00:18.738Z,46.25
2022-09-23T10:01:19.221Z,45.92
2022-09-23T10:02:18.901Z,47.70
2022-09-23T10:03:18.692Z,47.70
2022-09-23T10:04:18.954Z,47.70
2022-09-23T10:05:19.292Z,47.05
2022-09-23T10:06:18.261Z,48.18
2022-09-23T10:07:18.632Z,49.47
2022-09-23T10:08:18.241Z,45.92
2022-09-23T10:09:18.364Z,45.76
2022-09-23T10:10:31.723Z,47.37
2022-09-23T10:11:18.253Z,47.37
2022-09-23T10:12:18.385Z,46.41
2022-09-23T10:13:18.471Z,46.25
2022-09-23T10:14:18.479Z,47.05
2022-09-23T10:15:18.481Z,46.25
2022-09-23T10:16:18.343Z,47.37
2022-09-23T10:17:18.209Z,48.18
2022-09-23T10:18:18.298Z,45.92
2022-09-23T10:19:18.199Z,46.73
2022-09-23T10:20:18.198Z,44.96
2022-09-23T10:21:18.847Z,45.76
2022-09-23T10:22:18.840Z,45.60
2022-09-23T10:23:18.318Z,45.92
2022-09-23T10:24:18.428Z,46.57
2022-09-23T10:25:18.538Z,47.86
2022-09-23T10:26:18.566Z,48.02
2022-09-23T10:27:18.758Z,48.50
2022-09-23T10:28:18.180Z,46.08
2022-09-23T10:29:18.088Z,45.92
2022-09-23T10:30:18.088Z,46.73
2022-09-23T10:31:18.118Z,45.44
2022-09-23T10:32:18.101Z,47.05
2022-09-23T10:33:18.089Z,45.92
2022-09-23T10:34:18.097Z,45.60
2022-09-23T10:35:18.098Z,45.12
2022-09-23T10:36:18.046Z,45.44
2022-09-23T10:37:18.052Z,44.63
2022-09-23T10:38:18.031Z,47.21
2022-09-23T10:39:18.021Z,45.12
2022-09-23T10:40:18.229Z,52.53
2022-09-23T10:41:18.011Z,46.25
2022-09-23T10:42:18.022Z,45.76
2022-09-23T10:43:18.034Z,46.25
2022-09-23T10:44:17.996Z,47.37
2022-09-23T10:45:17.995Z,46.89
2022-09-23T10:46:18.003Z,44.63
2022-09-23T10:47:18.019Z,46.57
2022-09-23T10:48:18.088Z,45.92
2022-09-23T10:49:18.295Z,46.89
2022-09-23T10:50:17.995Z,45.28
2022-09-23T10:51:18.646Z,45.60
2022-09-23T10:52:18.115Z,45.60
2022-09-23T10:53:18.239Z,46.25
2022-09-23T10:54:18.276Z,46.25
2022-09-23T10:55:17.922Z,51.40
2022-09-23T10:56:17.909Z,45.92
2022-09-23T10:57:18.051Z,43.34
2022-09-23T10:58:18.269Z,46.08
2022-09-23T10:59:17.891Z,47.53
2022-09-23T11:00:17.891Z,44.47
2022-09-23T11:01:18.332Z,48.18
2022-09-23T11:02:17.881Z,47.53
2022-09-23T11:03:18.301Z,45.12
2022-09-23T11:04:18.250Z,44.31
2022-09-23T11:05:18.311Z,45.60
2022-09-23T11:06:18.426Z,45.92
2022-09-23T11:07:18.424Z,48.82
2022-09-23T11:08:17.854Z,48.02
2022-09-23T11:09:17.823Z,45.44
2022-09-23T11:10:28.933Z,46.73
2022-09-23T11:11:17.833Z,46.73
2022-09-23T11:12:18.455Z,45.44
2022-09-23T11:13:17.796Z,47.05
2022-09-23T11:14:18.476Z,45.60
2022-09-23T11:15:18.475Z,44.96
2022-09-23T11:16:18.534Z,45.12
2022-09-23T11:17:17.877Z,46.25
2022-09-23T11:18:18.286Z,45.28
2022-09-23T11:19:17.805Z,44.79
2022-09-23T11:20:18.626Z,45.12
2022-09-23T11:21:17.758Z,45.60
2022-09-23T11:22:17.775Z,47.05
2022-09-23T11:23:17.748Z,50.92
2022-09-23T11:24:17.866Z,44.79
2022-09-23T11:25:17.859Z,44.96
2022-09-23T11:26:17.860Z,44.63
2022-09-23T11:27:17.745Z,45.60
2022-09-23T11:28:17.970Z,46.57
2022-09-23T11:29:18.098Z,46.25
2022-09-23T11:30:18.102Z,45.28
2022-09-23T11:31:18.162Z,45.92
2022-09-23T11:32:17.690Z,46.41
2022-09-23T11:33:17.700Z,44.15
2022-09-23T11:34:18.330Z,49.15
2022-09-23T11:35:18.340Z,46.41
2022-09-23T11:36:18.128Z,45.44
2022-09-23T11:37:18.444Z,44.15
2022-09-23T11:38:17.731Z,44.79
2022-09-23T11:39:17.740Z,46.89
2022-09-23T11:40:17.681Z,44.15
2022-09-23T11:41:17.965Z,43.99
2022-09-23T11:42:17.764Z,46.73
2022-09-23T11:43:17.654Z,45.28
2022-09-23T11:44:17.612Z,48.50
2022-09-23T11:45:17.662Z,45.92
2022-09-23T11:46:18.149Z,44.96
2022-09-23T11:47:18.204Z,41.25
2022-09-23T11:48:17.594Z,44.15
2022-09-23T11:49:18.425Z,42.06
2022-09-23T11:50:17.617Z,40.44
2022-09-23T11:51:18.614Z,43.99
2022-09-23T11:52:18.243Z,55.11
2022-09-23T11:53:17.833Z,46.41
2022-09-23T11:54:20.633Z,39.64
2022-09-23T11:55:22.616Z,38.19
2022-09-23T11:56:30.234Z,48.98
2022-09-23T11:57:17.534Z,41.73
2022-09-23T11:58:25.320Z,41.09
2022-09-23T11:59:18.268Z,38.03
2022-09-23T12:00:17.506Z,38.35
2022-09-23T12:01:19.462Z,39.32
2022-09-23T12:02:21.204Z,47.05
2022-09-23T12:03:17.632Z,41.73
2022-09-23T12:04:20.712Z,64.29
2022-09-23T12:05:17.561Z,39.96
2022-09-23T12:06:17.455Z,45.12
2022-09-23T12:07:17.467Z,39.32
2022-09-23T12:08:17.536Z,43.18
2022-09-23T12:09:17.552Z,44.96
2022-09-23T12:10:17.564Z,39.32
2022-09-23T12:11:17.567Z,37.22
2022-09-23T12:12:17.570Z,52.69
2022-09-23T12:13:17.566Z,42.86
2022-09-23T12:14:17.406Z,43.02
2022-09-23T12:15:17.407Z,43.18
2022-09-23T12:16:17.466Z,45.92
2022-09-23T12:17:17.470Z,42.54
2022-09-23T12:18:22.858Z,44.63
2022-09-23T12:19:17.361Z,42.22
2022-09-23T12:20:17.628Z,44.63
2022-09-23T12:21:38.713Z,52.21
2022-09-23T12:22:17.628Z,47.21
2022-09-23T12:23:17.348Z,45.44
2022-09-23T12:24:19.305Z,50.11
2022-09-23T12:25:17.726Z,45.76
2022-09-23T12:26:17.729Z,50.11
2022-09-23T12:27:17.738Z,49.15
2022-09-23T12:28:17.326Z,52.37
2022-09-23T12:29:17.393Z,50.11
2022-09-23T12:30:17.325Z,45.60
2022-09-23T12:31:17.310Z,45.44
2022-09-23T12:32:17.280Z,46.25
2022-09-23T12:33:17.291Z,44.63
2022-09-23T12:34:17.300Z,52.21
2022-09-23T12:35:17.389Z,52.05
2022-09-23T12:36:17.250Z,66.55
2022-09-23T12:37:17.241Z,65.58
2022-09-23T12:38:17.399Z,67.84
2022-09-23T12:39:17.417Z,46.41
2022-09-23T12:40:17.268Z,43.67
2022-09-23T12:41:17.209Z,44.63
2022-09-23T12:42:17.430Z,45.12
2022-09-23T12:43:17.362Z,45.60
2022-09-23T12:44:17.199Z,43.99
2022-09-23T12:45:17.203Z,45.44
2022-09-23T12:46:17.266Z,45.12
2022-09-23T12:47:17.599Z,45.92
2022-09-23T12:48:17.608Z,44.47
2022-09-23T12:49:17.160Z,45.60
2022-09-23T12:50:22.268Z,44.79
2022-09-23T12:51:17.432Z,46.73
2022-09-23T12:52:17.633Z,43.51